sensor_id;sensor_type;location;lat;lon;timestamp;P1;durP1;ratioP1;P2;durP2;ratioP2
3801;SDS011;1916;51.798;12.246;2022-09-06T00:00:09;10.53;;;5.90;;
3801;SDS011;1916;51.798;12.246;2022-09-06T00:02:13;7.93;;;6.70;;
3801;SDS011;1916;51.798;12.246;2022-09-06T00:04:16;7.20;;;6.37;;
3801;SDS011;1916;51.798;12.246;2022-09-06T00:06:19;7.00;;;6.40;;
3801;SDS011;1916;51.798;12.246;2022-09-06T00:08:21;7.13;;;6.47;;
3801;SDS011;1916;51.798;12.246;2022-09-06T00:10:24;7.60;;;6.20;;
3801;SDS011;1916;51.798;12.246;2022-09-06T00:12:26;7.80;;;6.77;;
3801;SDS011;1916;51.798;12.246;2022-09-06T00:14:28;13.50;;;6.00;;
3801;SDS011;1916;51.798;12.246;2022-09-06T00:16:31;6.80;;;6.10;;
3801;SDS011;1916;51.798;12.246;2022-09-06T00:18:33;7.73;;;6.97;;
3801;SDS011;1916;51.798;12.246;2022-09-06T00:20:36;7.83;;;5.63;;
3801;SDS011;1916;51.798;12.246;2022-09-06T00:22:42;8.13;;;5.70;;
3801;SDS011;1916;51.798;12.246;2022-09-06T00:24:44;7.07;;;6.40;;
3801;SDS011;1916;51.798;12.246;2022-09-06T00:26:46;7.43;;;6.07;;
3801;SDS011;1916;51.798;12.246;2022-09-06T00:28:48;7.83;;;6.30;;
3801;SDS011;1916;51.798;12.246;2022-09-06T00:30:50;9.83;;;6.63;;
3801;SDS011;1916;51.798;12.246;2022-09-06T00:32:53;6.30;;;5.50;;
3801;SDS011;1916;51.798;12.246;2022-09-06T00:34:55;6.40;;;5.90;;
3801;SDS011;1916;51.798;12.246;2022-09-06T00:36:57;8.40;;;6.83;;
3801;SDS011;1916;51.798;12.246;2022-09-06T00:39:00;6.60;;;6.00;;
3801;SDS011;1916;51.798;12.246;2022-09-06T00:41:02;12.03;;;5.93;;
3801;SDS011;1916;51.798;12.246;2022-09-06T00:43:04;7.60;;;6.77;;
3801;SDS011;1916;51.798;12.246;2022-09-06T00:45:07;6.73;;;6.03;;
3801;SDS011;1916;51.798;12.246;2022-09-06T00:47:10;6.73;;;5.77;;
3801;SDS011;1916;51.798;12.246;2022-09-06T00:49:23;5.90;;;5.33;;
3801;SDS011;1916;51.798;12.246;2022-09-06T00:51:27;6.60;;;6.00;;
3801;SDS011;1916;51.798;12.246;2022-09-06T00:53:30;7.03;;;5.70;;
3801;SDS011;1916;51.798;12.246;2022-09-06T00:55:33;7.27;;;5.53;;
3801;SDS011;1916;51.798;12.246;2022-09-06T00:57:35;6.63;;;5.80;;
3801;SDS011;1916;51.798;12.246;2022-09-06T00:59:38;6.63;;;5.93;;
3801;SDS011;1916;51.798;12.246;2022-09-06T01:01:41;10.03;;;6.37;;
3801;SDS011;1916;51.798;12.246;2022-09-06T01:03:43;7.73;;;6.30;;
3801;SDS011;1916;51.798;12.246;2022-09-06T01:05:49;6.60;;;5.90;;
3801;SDS011;1916;51.798;12.246;2022-09-06T01:26:33;8.27;;;6.17;;
3801;SDS011;1916;51.798;12.246;2022-09-06T01:28:59;6.30;;;5.70;;
3801;SDS011;1916;51.798;12.246;2022-09-06T01:34:08;6.63;;;6.03;;
3801;SDS011;1916;51.798;12.246;2022-09-06T01:36:05;6.33;;;5.80;;
3801;SDS011;1916;51.798;12.246;2022-09-06T01:38:09;11.17;;;6.37;;
3801;SDS011;1916;51.798;12.246;2022-09-06T01:40:12;7.87;;;5.90;;
3801;SDS011;1916;51.798;12.246;2022-09-06T01:42:18;10.90;;;6.60;;
3801;SDS011;1916;51.798;12.246;2022-09-06T01:44:23;6.87;;;5.60;;
3801;SDS011;1916;51.798;12.246;2022-09-06T01:46:35;8.60;;;6.30;;
3801;SDS011;1916;51.798;12.246;2022-09-06T01:56:04;8.00;;;5.50;;
3801;SDS011;1916;51.798;12.246;2022-09-06T02:00:50;8.73;;;5.60;;
3801;SDS011;1916;51.798;12.246;2022-09-06T02:07:33;10.43;;;5.33;;
3801;SDS011;1916;51.798;12.246;2022-09-06T02:09:37;7.53;;;5.23;;
3801;SDS011;1916;51.798;12.246;2022-09-06T02:11:49;7.87;;;5.30;;
3801;SDS011;1916;51.798;12.246;2022-09-06T02:13:55;8.30;;;5.70;;
3801;SDS011;1916;51.798;12.246;2022-09-06T02:16:04;5.63;;;5.10;;
3801;SDS011;1916;51.798;12.246;2022-09-06T02:18:09;6.47;;;5.07;;
3801;SDS011;1916;51.798;12.246;2022-09-06T02:20:15;10.87;;;5.67;;
3801;SDS011;1916;51.798;12.246;2022-09-06T02:22:24;6.57;;;5.30;;
3801;SDS011;1916;51.798;12.246;2022-09-06T02:24:29;6.90;;;4.97;;
3801;SDS011;1916;51.798;12.246;2022-09-06T02:26:33;6.30;;;5.67;;
3801;SDS011;1916;51.798;12.246;2022-09-06T02:28:37;5.87;;;5.30;;
3801;SDS011;1916;51.798;12.246;2022-09-06T02:30:41;5.87;;;5.27;;
3801;SDS011;1916;51.798;12.246;2022-09-06T02:32:48;6.23;;;5.50;;
3801;SDS011;1916;51.798;12.246;2022-09-06T02:34:55;5.17;;;4.67;;
3801;SDS011;1916;51.798;12.246;2022-09-06T02:36:59;6.77;;;5.50;;
3801;SDS011;1916;51.798;12.246;2022-09-06T02:39:01;7.70;;;5.17;;
3801;SDS011;1916;51.798;12.246;2022-09-06T02:41:03;10.00;;;5.83;;
3801;SDS011;1916;51.798;12.246;2022-09-06T02:43:06;8.47;;;5.60;;
3801;SDS011;1916;51.798;12.246;2022-09-06T02:45:09;9.07;;;5.97;;
3801;SDS011;1916;51.798;12.246;2022-09-06T02:47:11;8.23;;;6.50;;
3801;SDS011;1916;51.798;12.246;2022-09-06T02:49:13;6.60;;;5.57;;
3801;SDS011;1916;51.798;12.246;2022-09-06T02:51:15;6.70;;;5.53;;
3801;SDS011;1916;51.798;12.246;2022-09-06T02:53:18;10.50;;;5.30;;
3801;SDS011;1916;51.798;12.246;2022-09-06T02:55:20;7.63;;;5.80;;
3801;SDS011;1916;51.798;12.246;2022-09-06T02:57:22;7.47;;;6.00;;
3801;SDS011;1916;51.798;12.246;2022-09-06T02:59:24;9.33;;;5.63;;
3801;SDS011;1916;51.798;12.246;2022-09-06T03:01:26;10.80;;;6.20;;
3801;SDS011;1916;51.798;12.246;2022-09-06T03:03:29;9.10;;;5.60;;
3801;SDS011;1916;51.798;12.246;2022-09-06T03:05:31;6.53;;;5.37;;
3801;SDS011;1916;51.798;12.246;2022-09-06T03:07:33;6.70;;;5.43;;
3801;SDS011;1916;51.798;12.246;2022-09-06T03:09:35;8.37;;;5.20;;
3801;SDS011;1916;51.798;12.246;2022-09-06T03:11:37;7.93;;;5.30;;
3801;SDS011;1916;51.798;12.246;2022-09-06T03:13:40;7.93;;;5.73;;
3801;SDS011;1916;51.798;12.246;2022-09-06T03:15:42;5.90;;;5.23;;
3801;SDS011;1916;51.798;12.246;2022-09-06T03:17:44;7.10;;;5.57;;
3801;SDS011;1916;51.798;12.246;2022-09-06T03:19:46;9.00;;;5.40;;
3801;SDS011;1916;51.798;12.246;2022-09-06T03:21:48;6.00;;;5.40;;
3801;SDS011;1916;51.798;12.246;2022-09-06T03:23:50;5.37;;;4.30;;
3801;SDS011;1916;51.798;12.246;2022-09-06T03:25:53;8.07;;;5.70;;
3801;SDS011;1916;51.798;12.246;2022-09-06T03:27:55;6.67;;;5.47;;
3801;SDS011;1916;51.798;12.246;2022-09-06T03:29:57;5.20;;;4.70;;
3801;SDS011;1916;51.798;12.246;2022-09-06T03:32:00;9.17;;;5.23;;
3801;SDS011;1916;51.798;12.246;2022-09-06T03:34:02;6.17;;;4.73;;
3801;SDS011;1916;51.798;12.246;2022-09-06T03:36:08;7.53;;;5.13;;
3801;SDS011;1916;51.798;12.246;2022-09-06T03:38:10;12.80;;;5.37;;
3801;SDS011;1916;51.798;12.246;2022-09-06T03:40:12;8.33;;;4.77;;
3801;SDS011;1916;51.798;12.246;2022-09-06T03:42:15;8.70;;;5.30;;
3801;SDS011;1916;51.798;12.246;2022-09-06T03:44:17;6.87;;;4.63;;
3801;SDS011;1916;51.798;12.246;2022-09-06T03:46:19;7.03;;;5.00;;
3801;SDS011;1916;51.798;12.246;2022-09-06T03:48:22;12.40;;;5.20;;
3801;SDS011;1916;51.798;12.246;2022-09-06T03:50:25;8.50;;;5.50;;
3801;SDS011;1916;51.798;12.246;2022-09-06T03:52:27;7.60;;;5.23;;
3801;SDS011;1916;51.798;12.246;2022-09-06T03:54:29;5.70;;;5.00;;
3801;SDS011;1916;51.798;12.246;2022-09-06T03:56:32;8.00;;;4.90;;
3801;SDS011;1916;51.798;12.246;2022-09-06T03:58:34;6.50;;;5.37;;
3801;SDS011;1916;51.798;12.246;2022-09-06T04:00:36;6.43;;;4.97;;
3801;SDS011;1916;51.798;12.246;2022-09-06T04:02:38;5.60;;;4.57;;
3801;SDS011;1916;51.798;12.246;2022-09-06T04:04:41;7.20;;;5.10;;
3801;SDS011;1916;51.798;12.246;2022-09-06T04:06:43;6.60;;;5.40;;
3801;SDS011;1916;51.798;12.246;2022-09-06T04:08:45;12.90;;;4.90;;
3801;SDS011;1916;51.798;12.246;2022-09-06T04:10:53;8.50;;;4.70;;
3801;SDS011;1916;51.798;12.246;2022-09-06T04:12:56;4.90;;;4.40;;
3801;SDS011;1916;51.798;12.246;2022-09-06T04:14:58;6.40;;;4.00;;
3801;SDS011;1916;51.798;12.246;2022-09-06T04:17:01;7.53;;;4.80;;
3801;SDS011;1916;51.798;12.246;2022-09-06T04:19:03;9.90;;;4.63;;
3801;SDS011;1916;51.798;12.246;2022-09-06T04:21:05;7.63;;;4.63;;
3801;SDS011;1916;51.798;12.246;2022-09-06T04:23:07;8.93;;;4.43;;
3801;SDS011;1916;51.798;12.246;2022-09-06T04:25:09;6.13;;;4.00;;
3801;SDS011;1916;51.798;12.246;2022-09-06T04:27:12;4.67;;;3.90;;
3801;SDS011;1916;51.798;12.246;2022-09-06T04:29:14;6.77;;;4.53;;
3801;SDS011;1916;51.798;12.246;2022-09-06T04:31:16;5.13;;;4.27;;
3801;SDS011;1916;51.798;12.246;2022-09-06T04:33:19;9.67;;;5.00;;
3801;SDS011;1916;51.798;12.246;2022-09-06T04:35:21;5.00;;;4.00;;
3801;SDS011;1916;51.798;12.246;2022-09-06T04:37:24;9.70;;;4.50;;
3801;SDS011;1916;51.798;12.246;2022-09-06T04:39:26;6.60;;;4.30;;
3801;SDS011;1916;51.798;12.246;2022-09-06T04:41:28;6.63;;;4.40;;
3801;SDS011;1916;51.798;12.246;2022-09-06T04:43:30;7.50;;;4.30;;
3801;SDS011;1916;51.798;12.246;2022-09-06T04:45:33;5.33;;;4.50;;
3801;SDS011;1916;51.798;12.246;2022-09-06T04:47:35;7.53;;;4.10;;
3801;SDS011;1916;51.798;12.246;2022-09-06T04:49:37;4.30;;;3.90;;
3801;SDS011;1916;51.798;12.246;2022-09-06T04:51:39;5.17;;;3.93;;
3801;SDS011;1916;51.798;12.246;2022-09-06T04:53:41;5.23;;;3.70;;
3801;SDS011;1916;51.798;12.246;2022-09-06T04:55:44;6.93;;;3.87;;
3801;SDS011;1916;51.798;12.246;2022-09-06T04:57:46;6.70;;;3.47;;
3801;SDS011;1916;51.798;12.246;2022-09-06T04:59:52;7.67;;;4.17;;
3801;SDS011;1916;51.798;12.246;2022-09-06T05:01:54;5.13;;;4.20;;
3801;SDS011;1916;51.798;12.246;2022-09-06T05:03:56;4.57;;;3.87;;
3801;SDS011;1916;51.798;12.246;2022-09-06T05:06:05;6.47;;;4.23;;
3801;SDS011;1916;51.798;12.246;2022-09-06T05:08:08;4.23;;;3.80;;
3801;SDS011;1916;51.798;12.246;2022-09-06T05:10:11;6.30;;;3.70;;
3801;SDS011;1916;51.798;12.246;2022-09-06T05:12:13;4.90;;;4.10;;
3801;SDS011;1916;51.798;12.246;2022-09-06T05:14:15;5.00;;;3.90;;
3801;SDS011;1916;51.798;12.246;2022-09-06T05:16:17;6.80;;;3.53;;
3801;SDS011;1916;51.798;12.246;2022-09-06T05:18:19;5.43;;;3.73;;
3801;SDS011;1916;51.798;12.246;2022-09-06T05:20:22;6.80;;;3.97;;
3801;SDS011;1916;51.798;12.246;2022-09-06T05:22:24;6.47;;;4.43;;
3801;SDS011;1916;51.798;12.246;2022-09-06T05:24:26;3.70;;;3.40;;
3801;SDS011;1916;51.798;12.246;2022-09-06T05:26:28;6.70;;;4.07;;
3801;SDS011;1916;51.798;12.246;2022-09-06T05:28:30;10.10;;;3.83;;
3801;SDS011;1916;51.798;12.246;2022-09-06T05:30:32;6.77;;;3.60;;
3801;SDS011;1916;51.798;12.246;2022-09-06T05:32:34;7.57;;;3.63;;
3801;SDS011;1916;51.798;12.246;2022-09-06T05:34:37;7.80;;;3.40;;
3801;SDS011;1916;51.798;12.246;2022-09-06T05:36:39;5.43;;;2.80;;
3801;SDS011;1916;51.798;12.246;2022-09-06T05:38:42;5.63;;;3.47;;
3801;SDS011;1916;51.798;12.246;2022-09-06T05:40:44;4.43;;;3.00;;
3801;SDS011;1916;51.798;12.246;2022-09-06T05:42:46;6.40;;;3.67;;
3801;SDS011;1916;51.798;12.246;2022-09-06T05:44:48;9.33;;;3.70;;
3801;SDS011;1916;51.798;12.246;2022-09-06T05:46:51;4.90;;;3.00;;
3801;SDS011;1916;51.798;12.246;2022-09-06T05:48:54;5.20;;;3.73;;
3801;SDS011;1916;51.798;12.246;2022-09-06T05:51:12;7.07;;;3.67;;
3801;SDS011;1916;51.798;12.246;2022-09-06T05:53:14;4.33;;;3.33;;
3801;SDS011;1916;51.798;12.246;2022-09-06T05:55:16;5.50;;;3.30;;
3801;SDS011;1916;51.798;12.246;2022-09-06T05:57:18;10.40;;;3.40;;
3801;SDS011;1916;51.798;12.246;2022-09-06T05:59:20;10.00;;;3.87;;
3801;SDS011;1916;51.798;12.246;2022-09-06T06:01:23;7.50;;;3.50;;
3801;SDS011;1916;51.798;12.246;2022-09-06T06:03:30;8.50;;;4.00;;
3801;SDS011;1916;51.798;12.246;2022-09-06T06:05:32;7.80;;;3.57;;
3801;SDS011;1916;51.798;12.246;2022-09-06T06:07:34;6.53;;;2.87;;
3801;SDS011;1916;51.798;12.246;2022-09-06T06:09:36;7.60;;;3.50;;
3801;SDS011;1916;51.798;12.246;2022-09-06T06:11:39;6.87;;;3.30;;
3801;SDS011;1916;51.798;12.246;2022-09-06T06:13:42;4.83;;;3.50;;
3801;SDS011;1916;51.798;12.246;2022-09-06T06:15:44;10.53;;;4.20;;
3801;SDS011;1916;51.798;12.246;2022-09-06T06:17:47;8.03;;;3.00;;
3801;SDS011;1916;51.798;12.246;2022-09-06T06:19:49;3.47;;;3.07;;
3801;SDS011;1916;51.798;12.246;2022-09-06T06:21:51;6.73;;;3.60;;
3801;SDS011;1916;51.798;12.246;2022-09-06T06:23:55;4.50;;;3.13;;
3801;SDS011;1916;51.798;12.246;2022-09-06T06:25:58;5.03;;;2.93;;
3801;SDS011;1916;51.798;12.246;2022-09-06T06:28:00;4.83;;;3.37;;
3801;SDS011;1916;51.798;12.246;2022-09-06T06:30:03;8.13;;;3.53;;
3801;SDS011;1916;51.798;12.246;2022-09-06T06:32:06;5.47;;;3.67;;
3801;SDS011;1916;51.798;12.246;2022-09-06T06:34:08;6.43;;;3.20;;
3801;SDS011;1916;51.798;12.246;2022-09-06T06:38:12;3.33;;;3.03;;
3801;SDS011;1916;51.798;12.246;2022-09-06T06:40:15;6.80;;;3.37;;
3801;SDS011;1916;51.798;12.246;2022-09-06T06:42:17;4.30;;;3.30;;
3801;SDS011;1916;51.798;12.246;2022-09-06T06:44:31;4.43;;;3.43;;
3801;SDS011;1916;51.798;12.246;2022-09-06T06:46:34;6.80;;;3.37;;
3801;SDS011;1916;51.798;12.246;2022-09-06T06:48:38;5.57;;;3.33;;
3801;SDS011;1916;51.798;12.246;2022-09-06T06:50:44;6.73;;;3.07;;
3801;SDS011;1916;51.798;12.246;2022-09-06T06:52:46;7.50;;;3.30;;
3801;SDS011;1916;51.798;12.246;2022-09-06T06:54:48;7.00;;;3.40;;
3801;SDS011;1916;51.798;12.246;2022-09-06T06:56:50;7.37;;;2.83;;
3801;SDS011;1916;51.798;12.246;2022-09-06T06:58:53;7.23;;;3.60;;
3801;SDS011;1916;51.798;12.246;2022-09-06T07:00:58;6.90;;;2.90;;
3801;SDS011;1916;51.798;12.246;2022-09-06T07:03:00;5.00;;;2.97;;
3801;SDS011;1916;51.798;12.246;2022-09-06T07:05:03;8.33;;;3.50;;
3801;SDS011;1916;51.798;12.246;2022-09-06T07:07:25;4.27;;;3.00;;
3801;SDS011;1916;51.798;12.246;2022-09-06T07:09:30;5.50;;;3.50;;
3801;SDS011;1916;51.798;12.246;2022-09-06T07:11:52;6.60;;;3.43;;
3801;SDS011;1916;51.798;12.246;2022-09-06T07:13:54;2.83;;;2.60;;
3801;SDS011;1916;51.798;12.246;2022-09-06T07:18:19;5.93;;;3.43;;
3801;SDS011;1916;51.798;12.246;2022-09-06T07:20:21;7.00;;;3.53;;
3801;SDS011;1916;51.798;12.246;2022-09-06T07:22:24;4.33;;;2.97;;
3801;SDS011;1916;51.798;12.246;2022-09-06T07:24:26;4.60;;;2.90;;
3801;SDS011;1916;51.798;12.246;2022-09-06T07:26:29;4.13;;;3.57;;
3801;SDS011;1916;51.798;12.246;2022-09-06T07:28:31;8.37;;;3.87;;
3801;SDS011;1916;51.798;12.246;2022-09-06T07:30:34;6.83;;;3.37;;
3801;SDS011;1916;51.798;12.246;2022-09-06T07:32:37;11.37;;;3.63;;
3801;SDS011;1916;51.798;12.246;2022-09-06T07:34:39;9.57;;;3.33;;
3801;SDS011;1916;51.798;12.246;2022-09-06T07:36:42;5.37;;;3.07;;
3801;SDS011;1916;51.798;12.246;2022-09-06T07:38:48;4.50;;;3.30;;
3801;SDS011;1916;51.798;12.246;2022-09-06T07:40:54;5.27;;;2.90;;
3801;SDS011;1916;51.798;12.246;2022-09-06T07:42:57;6.27;;;3.47;;
3801;SDS011;1916;51.798;12.246;2022-09-06T07:45:00;6.67;;;3.37;;
3801;SDS011;1916;51.798;12.246;2022-09-06T07:47:02;5.17;;;3.63;;
3801;SDS011;1916;51.798;12.246;2022-09-06T07:49:27;5.23;;;3.40;;
3801;SDS011;1916;51.798;12.246;2022-09-06T07:51:35;8.93;;;3.70;;
3801;SDS011;1916;51.798;12.246;2022-09-06T07:53:38;7.13;;;3.43;;
3801;SDS011;1916;51.798;12.246;2022-09-06T07:55:41;6.90;;;3.23;;
3801;SDS011;1916;51.798;12.246;2022-09-06T07:57:43;6.13;;;3.47;;
3801;SDS011;1916;51.798;12.246;2022-09-06T07:59:45;6.43;;;3.13;;
3801;SDS011;1916;51.798;12.246;2022-09-06T08:01:47;5.83;;;3.47;;
3801;SDS011;1916;51.798;12.246;2022-09-06T08:03:50;5.20;;;3.60;;
3801;SDS011;1916;51.798;12.246;2022-09-06T08:05:53;5.40;;;4.00;;
3801;SDS011;1916;51.798;12.246;2022-09-06T08:08:11;5.63;;;3.67;;
3801;SDS011;1916;51.798;12.246;2022-09-06T08:10:33;5.70;;;3.60;;
3801;SDS011;1916;51.798;12.246;2022-09-06T08:12:35;6.20;;;3.90;;
3801;SDS011;1916;51.798;12.246;2022-09-06T08:14:37;5.70;;;3.70;;
3801;SDS011;1916;51.798;12.246;2022-09-06T08:16:39;4.50;;;3.40;;
3801;SDS011;1916;51.798;12.246;2022-09-06T08:18:42;10.00;;;3.40;;
3801;SDS011;1916;51.798;12.246;2022-09-06T08:20:44;9.90;;;3.30;;
3801;SDS011;1916;51.798;12.246;2022-09-06T08:22:46;6.83;;;3.60;;
3801;SDS011;1916;51.798;12.246;2022-09-06T08:24:48;5.60;;;4.07;;
3801;SDS011;1916;51.798;12.246;2022-09-06T08:26:50;9.97;;;3.70;;
3801;SDS011;1916;51.798;12.246;2022-09-06T08:28:56;5.77;;;3.70;;
3801;SDS011;1916;51.798;12.246;2022-09-06T08:31:04;5.80;;;4.10;;
3801;SDS011;1916;51.798;12.246;2022-09-06T08:33:10;6.17;;;3.37;;
3801;SDS011;1916;51.798;12.246;2022-09-06T08:35:13;5.07;;;3.30;;
3801;SDS011;1916;51.798;12.246;2022-09-06T08:37:15;4.80;;;3.57;;
3801;SDS011;1916;51.798;12.246;2022-09-06T08:39:17;4.47;;;3.40;;
3801;SDS011;1916;51.798;12.246;2022-09-06T08:41:22;5.77;;;3.60;;
3801;SDS011;1916;51.798;12.246;2022-09-06T08:43:26;5.77;;;3.70;;
3801;SDS011;1916;51.798;12.246;2022-09-06T08:45:29;10.00;;;4.03;;
3801;SDS011;1916;51.798;12.246;2022-09-06T08:47:31;9.03;;;3.73;;
3801;SDS011;1916;51.798;12.246;2022-09-06T08:49:37;5.27;;;4.20;;
3801;SDS011;1916;51.798;12.246;2022-09-06T08:53:50;9.43;;;3.93;;
3801;SDS011;1916;51.798;12.246;2022-09-06T08:55:56;8.40;;;4.00;;
3801;SDS011;1916;51.798;12.246;2022-09-06T09:00:19;6.00;;;3.73;;
3801;SDS011;1916;51.798;12.246;2022-09-06T09:02:23;5.40;;;3.90;;
3801;SDS011;1916;51.798;12.246;2022-09-06T09:04:26;5.40;;;4.40;;
3801;SDS011;1916;51.798;12.246;2022-09-06T09:06:30;11.03;;;5.10;;
3801;SDS011;1916;51.798;12.246;2022-09-06T09:08:36;5.60;;;3.93;;
3801;SDS011;1916;51.798;12.246;2022-09-06T09:11:04;13.70;;;4.07;;
3801;SDS011;1916;51.798;12.246;2022-09-06T09:13:08;6.97;;;4.20;;
3801;SDS011;1916;51.798;12.246;2022-09-06T09:15:18;5.83;;;4.30;;
3801;SDS011;1916;51.798;12.246;2022-09-06T09:17:23;7.13;;;4.40;;
3801;SDS011;1916;51.798;12.246;2022-09-06T09:19:27;13.43;;;4.80;;
3801;SDS011;1916;51.798;12.246;2022-09-06T09:21:33;4.73;;;4.13;;
3801;SDS011;1916;51.798;12.246;2022-09-06T09:23:37;7.60;;;4.10;;
3801;SDS011;1916;51.798;12.246;2022-09-06T09:25:39;10.80;;;4.67;;
3801;SDS011;1916;51.798;12.246;2022-09-06T09:27:42;9.13;;;4.23;;
3801;SDS011;1916;51.798;12.246;2022-09-06T09:32:25;5.97;;;4.03;;
3801;SDS011;1916;51.798;12.246;2022-09-06T09:34:40;5.27;;;4.50;;
3801;SDS011;1916;51.798;12.246;2022-09-06T09:36:42;7.03;;;5.10;;
3801;SDS011;1916;51.798;12.246;2022-09-06T09:39:07;8.83;;;4.20;;
3801;SDS011;1916;51.798;12.246;2022-09-06T09:41:27;4.30;;;3.90;;
3801;SDS011;1916;51.798;12.246;2022-09-06T09:43:33;6.27;;;4.87;;
3801;SDS011;1916;51.798;12.246;2022-09-06T09:45:37;11.20;;;4.57;;
3801;SDS011;1916;51.798;12.246;2022-09-06T09:47:39;12.77;;;4.07;;
3801;SDS011;1916;51.798;12.246;2022-09-06T09:49:41;8.53;;;4.57;;
3801;SDS011;1916;51.798;12.246;2022-09-06T09:51:44;5.80;;;4.30;;
3801;SDS011;1916;51.798;12.246;2022-09-06T09:53:51;9.37;;;5.00;;
3801;SDS011;1916;51.798;12.246;2022-09-06T09:55:56;5.13;;;4.00;;
3801;SDS011;1916;51.798;12.246;2022-09-06T09:57:58;8.80;;;4.43;;
3801;SDS011;1916;51.798;12.246;2022-09-06T10:00:01;7.80;;;4.23;;
3801;SDS011;1916;51.798;12.246;2022-09-06T10:02:23;4.27;;;3.87;;
3801;SDS011;1916;51.798;12.246;2022-09-06T10:04:46;7.77;;;4.20;;
3801;SDS011;1916;51.798;12.246;2022-09-06T10:06:50;5.33;;;4.10;;
3801;SDS011;1916;51.798;12.246;2022-09-06T10:09:11;7.50;;;4.50;;
3801;SDS011;1916;51.798;12.246;2022-09-06T10:12:12;9.20;;;4.80;;
3801;SDS011;1916;51.798;12.246;2022-09-06T10:14:08;13.37;;;4.90;;
3801;SDS011;1916;51.798;12.246;2022-09-06T10:16:12;8.23;;;3.97;;
3801;SDS011;1916;51.798;12.246;2022-09-06T10:20:42;10.53;;;3.90;;
3801;SDS011;1916;51.798;12.246;2022-09-06T10:27:28;9.47;;;4.30;;
3801;SDS011;1916;51.798;12.246;2022-09-06T10:29:37;7.20;;;4.80;;
3801;SDS011;1916;51.798;12.246;2022-09-06T10:31:44;11.33;;;5.10;;
3801;SDS011;1916;51.798;12.246;2022-09-06T10:33:57;6.40;;;4.37;;
3801;SDS011;1916;51.798;12.246;2022-09-06T10:36:02;6.60;;;4.23;;
3801;SDS011;1916;51.798;12.246;2022-09-06T10:42:59;7.60;;;5.53;;
3801;SDS011;1916;51.798;12.246;2022-09-06T10:48:22;11.53;;;5.17;;
3801;SDS011;1916;51.798;12.246;2022-09-06T10:50:15;7.30;;;4.60;;
3801;SDS011;1916;51.798;12.246;2022-09-06T10:52:20;9.20;;;4.27;;
3801;SDS011;1916;51.798;12.246;2022-09-06T10:54:26;7.37;;;4.40;;
3801;SDS011;1916;51.798;12.246;2022-09-06T10:56:33;8.60;;;5.13;;
3801;SDS011;1916;51.798;12.246;2022-09-06T10:58:40;6.10;;;4.47;;
3801;SDS011;1916;51.798;12.246;2022-09-06T11:01:06;6.97;;;4.90;;
3801;SDS011;1916;51.798;12.246;2022-09-06T11:03:29;5.70;;;4.30;;
3801;SDS011;1916;51.798;12.246;2022-09-06T11:05:53;5.57;;;4.57;;
3801;SDS011;1916;51.798;12.246;2022-09-06T11:07:59;7.57;;;5.13;;
3801;SDS011;1916;51.798;12.246;2022-09-06T11:10:25;6.23;;;4.80;;
3801;SDS011;1916;51.798;12.246;2022-09-06T11:14:43;8.87;;;5.20;;
3801;SDS011;1916;51.798;12.246;2022-09-06T11:16:47;5.03;;;4.53;;
3801;SDS011;1916;51.798;12.246;2022-09-06T11:19:06;8.50;;;4.60;;
3801;SDS011;1916;51.798;12.246;2022-09-06T11:21:24;10.80;;;5.70;;
3801;SDS011;1916;51.798;12.246;2022-09-06T11:23:40;7.10;;;4.43;;
3801;SDS011;1916;51.798;12.246;2022-09-06T11:26:09;8.50;;;4.43;;
3801;SDS011;1916;51.798;12.246;2022-09-06T11:28:41;6.83;;;5.10;;
3801;SDS011;1916;51.798;12.246;2022-09-06T11:30:46;10.93;;;4.70;;
3801;SDS011;1916;51.798;12.246;2022-09-06T11:32:49;7.77;;;5.00;;
3801;SDS011;1916;51.798;12.246;2022-09-06T11:34:52;11.23;;;5.57;;
3801;SDS011;1916;51.798;12.246;2022-09-06T11:36:56;7.87;;;5.10;;
3801;SDS011;1916;51.798;12.246;2022-09-06T11:39:01;7.10;;;4.60;;
3801;SDS011;1916;51.798;12.246;2022-09-06T11:41:04;6.23;;;5.57;;
3801;SDS011;1916;51.798;12.246;2022-09-06T11:43:16;5.80;;;5.00;;
3801;SDS011;1916;51.798;12.246;2022-09-06T11:45:39;8.27;;;5.70;;
3801;SDS011;1916;51.798;12.246;2022-09-06T11:47:49;7.37;;;5.00;;
3801;SDS011;1916;51.798;12.246;2022-09-06T11:49:52;14.70;;;5.27;;
3801;SDS011;1916;51.798;12.246;2022-09-06T11:51:55;6.07;;;5.40;;
3801;SDS011;1916;51.798;12.246;2022-09-06T17:57:46;14.60;;;9.10;;
3801;SDS011;1916;51.798;12.246;2022-09-06T17:59:48;9.70;;;8.70;;
3801;SDS011;1916;51.798;12.246;2022-09-06T18:01:50;10.53;;;9.53;;
3801;SDS011;1916;51.798;12.246;2022-09-06T18:03:53;10.37;;;8.90;;
3801;SDS011;1916;51.798;12.246;2022-09-06T18:06:00;27.13;;;9.33;;
3801;SDS011;1916;51.798;12.246;2022-09-06T18:08:06;10.17;;;8.47;;
3801;SDS011;1916;51.798;12.246;2022-09-06T18:10:09;11.00;;;9.67;;
3801;SDS011;1916;51.798;12.246;2022-09-06T18:12:11;11.63;;;8.13;;
3801;SDS011;1916;51.798;12.246;2022-09-06T18:14:15;8.80;;;7.97;;
3801;SDS011;1916;51.798;12.246;2022-09-06T18:16:18;14.00;;;8.77;;
3801;SDS011;1916;51.798;12.246;2022-09-06T18:18:20;9.10;;;7.93;;
3801;SDS011;1916;51.798;12.246;2022-09-06T18:20:24;9.10;;;8.20;;
3801;SDS011;1916;51.798;12.246;2022-09-06T18:22:26;9.83;;;8.27;;
3801;SDS011;1916;51.798;12.246;2022-09-06T18:24:29;10.70;;;8.63;;
3801;SDS011;1916;51.798;12.246;2022-09-06T18:26:31;9.37;;;8.47;;
3801;SDS011;1916;51.798;12.246;2022-09-06T18:28:34;15.20;;;8.90;;
3801;SDS011;1916;51.798;12.246;2022-09-06T18:30:36;9.43;;;8.53;;
3801;SDS011;1916;51.798;12.246;2022-09-06T18:32:39;9.67;;;8.33;;
3801;SDS011;1916;51.798;12.246;2022-09-06T18:34:41;9.13;;;8.23;;
3801;SDS011;1916;51.798;12.246;2022-09-06T18:36:43;16.30;;;9.80;;
3801;SDS011;1916;51.798;12.246;2022-09-06T18:38:46;10.10;;;9.10;;
3801;SDS011;1916;51.798;12.246;2022-09-06T18:40:55;10.70;;;9.17;;
3801;SDS011;1916;51.798;12.246;2022-09-06T18:42:58;10.37;;;8.70;;
3801;SDS011;1916;51.798;12.246;2022-09-06T18:45:00;10.50;;;9.40;;
3801;SDS011;1916;51.798;12.246;2022-09-06T18:47:03;11.10;;;9.43;;
3801;SDS011;1916;51.798;12.246;2022-09-06T18:49:07;9.23;;;8.33;;
3801;SDS011;1916;51.798;12.246;2022-09-06T18:51:11;15.83;;;10.40;;
3801;SDS011;1916;51.798;12.246;2022-09-06T18:53:16;12.73;;;10.20;;
3801;SDS011;1916;51.798;12.246;2022-09-06T18:55:19;15.10;;;10.97;;
3801;SDS011;1916;51.798;12.246;2022-09-06T18:57:21;12.57;;;9.73;;
3801;SDS011;1916;51.798;12.246;2022-09-06T18:59:23;11.20;;;10.10;;
3801;SDS011;1916;51.798;12.246;2022-09-06T19:01:26;12.00;;;10.10;;
3801;SDS011;1916;51.798;12.246;2022-09-06T19:03:30;11.83;;;10.63;;
3801;SDS011;1916;51.798;12.246;2022-09-06T19:05:33;16.73;;;10.47;;
3801;SDS011;1916;51.798;12.246;2022-09-06T19:07:36;12.67;;;11.10;;
3801;SDS011;1916;51.798;12.246;2022-09-06T19:09:38;11.60;;;10.50;;
3801;SDS011;1916;51.798;12.246;2022-09-06T19:11:41;12.00;;;10.90;;
3801;SDS011;1916;51.798;12.246;2022-09-06T19:13:45;13.50;;;10.53;;
3801;SDS011;1916;51.798;12.246;2022-09-06T19:15:49;11.70;;;10.50;;
3801;SDS011;1916;51.798;12.246;2022-09-06T19:17:51;22.00;;;11.47;;
3801;SDS011;1916;51.798;12.246;2022-09-06T19:19:54;14.23;;;11.13;;
3801;SDS011;1916;51.798;12.246;2022-09-06T19:21:56;11.40;;;10.20;;
3801;SDS011;1916;51.798;12.246;2022-09-06T19:24:04;12.87;;;10.17;;
3801;SDS011;1916;51.798;12.246;2022-09-06T19:28:20;11.37;;;10.23;;
3801;SDS011;1916;51.798;12.246;2022-09-06T19:30:22;12.20;;;10.87;;
3801;SDS011;1916;51.798;12.246;2022-09-06T19:32:24;13.33;;;10.30;;
3801;SDS011;1916;51.798;12.246;2022-09-06T19:34:26;10.50;;;9.50;;
3801;SDS011;1916;51.798;12.246;2022-09-06T19:36:28;10.53;;;9.40;;
3801;SDS011;1916;51.798;12.246;2022-09-06T19:38:32;13.27;;;10.90;;
3801;SDS011;1916;51.798;12.246;2022-09-06T19:40:59;13.00;;;10.47;;
3801;SDS011;1916;51.798;12.246;2022-09-06T19:43:03;12.20;;;9.63;;
3801;SDS011;1916;51.798;12.246;2022-09-06T19:45:05;15.77;;;10.47;;
3801;SDS011;1916;51.798;12.246;2022-09-06T19:47:10;13.10;;;10.70;;
3801;SDS011;1916;51.798;12.246;2022-09-06T19:49:13;11.10;;;10.00;;
3801;SDS011;1916;51.798;12.246;2022-09-06T19:51:17;12.20;;;10.90;;